sensor_id;sensor_type;location;lat;lon;timestamp;pressure;altitude;pressure_sealevel;temperature;humidity
76553;BME280;65395;53.168;18.156;2023-03-12T00:00:08;99905.80;;;0.12;73.80
76553;BME280;65395;53.168;18.156;2023-03-12T00:02:57;99912.73;;;0.12;73.86
76553;BME280;65395;53.168;18.156;2023-03-12T00:05:23;99907.41;;;0.09;73.84
76553;BME280;65395;53.168;18.156;2023-03-12T00:07:52;99912.92;;;0.05;73.91
76553;BME280;65395;53.168;18.156;2023-03-12T00:10:19;99912.77;;;0.04;74.11
76553;BME280;65395;53.168;18.156;2023-03-12T00:12:46;99903.88;;;0.02;74.31
76553;BME280;65395;53.168;18.156;2023-03-12T00:15:13;99902.80;;;0.04;74.11
76553;BME280;65395;53.168;18.156;2023-03-12T00:17:39;99905.55;;;0.03;74.41
76553;BME280;65395;53.168;18.156;2023-03-12T00:20:06;99894.11;;;0.01;74.47
76553;BME280;65395;53.168;18.156;2023-03-12T00:22:33;99905.67;;;-0.02;74.57
76553;BME280;65395;53.168;18.156;2023-03-12T00:25:00;99900.69;;;-0.09;74.60
76553;BME280;65395;53.168;18.156;2023-03-12T00:27:27;99907.45;;;-0.03;74.60
76553;BME280;65395;53.168;18.156;2023-03-12T00:29:54;99906.77;;;0.01;74.68
76553;BME280;65395;53.168;18.156;2023-03-12T00:32:21;99905.62;;;0.08;74.62
76553;BME280;65395;53.168;18.156;2023-03-12T00:34:50;99908.73;;;0.15;74.65
76553;BME280;65395;53.168;18.156;2023-03-12T00:37:18;99902.02;;;0.15;74.40
76553;BME280;65395;53.168;18.156;2023-03-12T00:39:45;99898.20;;;0.23;74.45
76553;BME280;65395;53.168;18.156;2023-03-12T00:42:12;99917.48;;;0.24;74.59
76553;BME280;65395;53.168;18.156;2023-03-12T00:44:39;99897.38;;;0.23;74.49
76553;BME280;65395;53.168;18.156;2023-03-12T00:47:06;99898.88;;;0.23;74.62
76553;BME280;65395;53.168;18.156;2023-03-12T00:49:33;99896.34;;;0.23;74.67
76553;BME280;65395;53.168;18.156;2023-03-12T00:51:59;99897.38;;;0.23;74.54
76553;BME280;65395;53.168;18.156;2023-03-12T00:54:26;99896.49;;;0.23;74.78
76553;BME280;65395;53.168;18.156;2023-03-12T00:56:53;99888.60;;;0.23;74.57
76553;BME280;65395;53.168;18.156;2023-03-12T00:59:20;99890.23;;;0.21;74.83
76553;BME280;65395;53.168;18.156;2023-03-12T01:01:47;99891.36;;;0.17;74.81
76553;BME280;65395;53.168;18.156;2023-03-12T01:04:14;99879.11;;;0.13;75.09
76553;BME280;65395;53.168;18.156;2023-03-12T01:06:41;99882.23;;;0.07;75.06
76553;BME280;65395;53.168;18.156;2023-03-12T01:09:08;99878.70;;;0.03;75.17
76553;BME280;65395;53.168;18.156;2023-03-12T01:11:36;99874.21;;;-0.03;75.34
76553;BME280;65395;53.168;18.156;2023-03-12T01:14:05;99869.64;;;-0.10;75.64
76553;BME280;65395;53.168;18.156;2023-03-12T01:16:32;99877.43;;;-0.14;75.62
76553;BME280;65395;53.168;18.156;2023-03-12T01:19:00;99875.52;;;-0.20;76.00
76553;BME280;65395;53.168;18.156;2023-03-12T01:21:28;99880.88;;;-0.25;76.15
76553;BME280;65395;53.168;18.156;2023-03-12T01:23:55;99887.44;;;-0.29;76.45
76553;BME280;65395;53.168;18.156;2023-03-12T01:26:23;99881.12;;;-0.31;76.74
76553;BME280;65395;53.168;18.156;2023-03-12T01:28:50;99892.95;;;-0.33;77.15
76553;BME280;65395;53.168;18.156;2023-03-12T01:31:18;99890.11;;;-0.36;77.06
76553;BME280;65395;53.168;18.156;2023-03-12T01:33:49;99886.83;;;-0.37;77.25
76553;BME280;65395;53.168;18.156;2023-03-12T01:36:23;99883.34;;;-0.38;76.90
76553;BME280;65395;53.168;18.156;2023-03-12T01:38:51;99889.11;;;-0.40;77.21
76553;BME280;65395;53.168;18.156;2023-03-12T01:41:19;99890.80;;;-0.40;77.28
76553;BME280;65395;53.168;18.156;2023-03-12T01:43:48;99883.11;;;-0.42;77.29
76553;BME280;65395;53.168;18.156;2023-03-12T01:49:06;99888.33;;;-0.48;77.53
76553;BME280;65395;53.168;18.156;2023-03-12T01:51:42;99884.77;;;-0.50;77.49
76553;BME280;65395;53.168;18.156;2023-03-12T01:54:19;99885.16;;;-0.53;77.34
76553;BME280;65395;53.168;18.156;2023-03-12T01:56:48;99895.41;;;-0.57;77.66
76553;BME280;65395;53.168;18.156;2023-03-12T01:59:22;99904.85;;;-0.59;78.17
76553;BME280;65395;53.168;18.156;2023-03-12T02:01:50;99909.97;;;-0.56;78.00
76553;BME280;65395;53.168;18.156;2023-03-12T02:04:21;99908.56;;;-0.52;78.00
76553;BME280;65395;53.168;18.156;2023-03-12T02:06:53;99919.48;;;-0.44;77.97
76553;BME280;65395;53.168;18.156;2023-03-12T02:09:23;99911.02;;;-0.36;77.98
76553;BME280;65395;53.168;18.156;2023-03-12T02:11:50;99908.34;;;-0.30;77.89
76553;BME280;65395;53.168;18.156;2023-03-12T02:14:19;99912.12;;;-0.24;77.87
76553;BME280;65395;53.168;18.156;2023-03-12T02:16:46;99908.52;;;-0.20;77.55
76553;BME280;65395;53.168;18.156;2023-03-12T02:21:58;99909.95;;;-0.12;77.64
76553;BME280;65395;53.168;18.156;2023-03-12T02:24:40;99912.84;;;-0.10;77.52
76553;BME280;65395;53.168;18.156;2023-03-12T02:27:11;99922.58;;;-0.07;77.58
76553;BME280;65395;53.168;18.156;2023-03-12T02:29:40;99921.06;;;-0.05;77.52
76553;BME280;65395;53.168;18.156;2023-03-12T02:32:08;99917.07;;;-0.05;77.30
76553;BME280;65395;53.168;18.156;2023-03-12T02:34:40;99925.77;;;-0.05;77.60
76553;BME280;65395;53.168;18.156;2023-03-12T02:37:10;99929.25;;;-0.08;77.82
76553;BME280;65395;53.168;18.156;2023-03-12T02:39:37;99925.36;;;-0.11;77.82
76553;BME280;65395;53.168;18.156;2023-03-12T02:42:05;99923.52;;;-0.13;77.75
76553;BME280;65395;53.168;18.156;2023-03-12T02:44:32;99938.80;;;-0.13;78.06
76553;BME280;65395;53.168;18.156;2023-03-12T02:47:02;99928.04;;;-0.09;78.06
76553;BME280;65395;53.168;18.156;2023-03-12T02:49:32;99930.39;;;-0.07;78.16
76553;BME280;65395;53.168;18.156;2023-03-12T02:52:00;99938.61;;;-0.06;78.18
76553;BME280;65395;53.168;18.156;2023-03-12T02:54:28;99939.92;;;-0.05;78.31
76553;BME280;65395;53.168;18.156;2023-03-12T02:56:55;99937.33;;;-0.05;78.27
76553;BME280;65395;53.168;18.156;2023-03-12T02:59:24;99937.92;;;-0.06;78.43
76553;BME280;65395;53.168;18.156;2023-03-12T03:01:55;99940.98;;;-0.07;78.44
76553;BME280;65395;53.168;18.156;2023-03-12T03:04:23;99936.45;;;-0.07;78.44
76553;BME280;65395;53.168;18.156;2023-03-12T03:06:51;99933.14;;;-0.07;78.05
76553;BME280;65395;53.168;18.156;2023-03-12T03:09:18;99940.20;;;-0.09;77.81
76553;BME280;65395;53.168;18.156;2023-03-12T03:11:48;99947.25;;;-0.12;77.69
76553;BME280;65395;53.168;18.156;2023-03-12T03:14:17;99960.07;;;-0.14;77.56
76553;BME280;65395;53.168;18.156;2023-03-12T03:16:45;99960.06;;;-0.14;77.19
76553;BME280;65395;53.168;18.156;2023-03-12T03:19:12;99955.80;;;-0.12;76.67
76553;BME280;65395;53.168;18.156;2023-03-12T03:21:39;99956.67;;;-0.10;76.54
76553;BME280;65395;53.168;18.156;2023-03-12T03:24:06;99967.05;;;-0.09;76.37
76553;BME280;65395;53.168;18.156;2023-03-12T03:26:33;99968.30;;;-0.08;76.32
76553;BME280;65395;53.168;18.156;2023-03-12T03:28:59;99965.45;;;-0.11;76.23
76553;BME280;65395;53.168;18.156;2023-03-12T03:31:26;99969.73;;;-0.15;76.62
76553;BME280;65395;53.168;18.156;2023-03-12T03:33:53;99980.95;;;-0.18;76.65
76553;BME280;65395;53.168;18.156;2023-03-12T03:36:20;99975.98;;;-0.19;76.60
76553;BME280;65395;53.168;18.156;2023-03-12T03:38:56;99978.54;;;-0.17;76.59
76553;BME280;65395;53.168;18.156;2023-03-12T03:41:23;99983.18;;;-0.16;76.81
76553;BME280;65395;53.168;18.156;2023-03-12T03:43:56;99990.43;;;-0.14;76.85
76553;BME280;65395;53.168;18.156;2023-03-12T03:46:24;99990.71;;;-0.12;76.67
76553;BME280;65395;53.168;18.156;2023-03-12T03:48:56;99991.48;;;-0.15;76.79
76553;BME280;65395;53.168;18.156;2023-03-12T03:51:23;99994.56;;;-0.19;77.07
76553;BME280;65395;53.168;18.156;2023-03-12T03:53:53;99991.95;;;-0.22;77.17
76553;BME280;65395;53.168;18.156;2023-03-12T03:56:20;100001.83;;;-0.24;76.90
76553;BME280;65395;53.168;18.156;2023-03-12T03:58:48;100003.86;;;-0.26;77.04
76553;BME280;65395;53.168;18.156;2023-03-12T04:01:17;100008.20;;;-0.29;77.01
76553;BME280;65395;53.168;18.156;2023-03-12T04:03:44;100020.27;;;-0.32;77.08
76553;BME280;65395;53.168;18.156;2023-03-12T04:06:11;100017.73;;;-0.33;76.96
76553;BME280;65395;53.168;18.156;2023-03-12T04:08:38;100014.08;;;-0.36;76.92
76553;BME280;65395;53.168;18.156;2023-03-12T04:11:11;100021.72;;;-0.39;76.92
76553;BME280;65395;53.168;18.156;2023-03-12T04:13:38;100024.00;;;-0.41;76.77
76553;BME280;65395;53.168;18.156;2023-03-12T04:16:06;100021.64;;;-0.44;76.74
76553;BME280;65395;53.168;18.156;2023-03-12T04:18:34;100023.69;;;-0.47;76.79
76553;BME280;65395;53.168;18.156;2023-03-12T04:21:03;100029.05;;;-0.50;76.70
76553;BME280;65395;53.168;18.156;2023-03-12T04:23:31;100032.98;;;-0.53;76.58
76553;BME280;65395;53.168;18.156;2023-03-12T04:25:58;100030.90;;;-0.56;76.48
76553;BME280;65395;53.168;18.156;2023-03-12T04:28:25;100041.27;;;-0.60;76.57
76553;BME280;65395;53.168;18.156;2023-03-12T04:30:57;100041.77;;;-0.63;76.50
76553;BME280;65395;53.168;18.156;2023-03-12T04:33:27;100049.48;;;-0.67;76.54
76553;BME280;65395;53.168;18.156;2023-03-12T04:35:55;100046.98;;;-0.71;76.70
76553;BME280;65395;53.168;18.156;2023-03-12T04:38:24;100053.80;;;-0.74;76.81
76553;BME280;65395;53.168;18.156;2023-03-12T04:41:03;100054.98;;;-0.77;76.93
76553;BME280;65395;53.168;18.156;2023-03-12T04:43:30;100046.70;;;-0.79;76.85
76553;BME280;65395;53.168;18.156;2023-03-12T04:45:58;100045.48;;;-0.83;76.97
76553;BME280;65395;53.168;18.156;2023-03-12T04:48:26;100055.52;;;-0.87;77.14
76553;BME280;65395;53.168;18.156;2023-03-12T04:50:54;100054.63;;;-0.91;77.33
76553;BME280;65395;53.168;18.156;2023-03-12T04:53:21;100054.21;;;-0.95;77.41
76553;BME280;65395;53.168;18.156;2023-03-12T04:55:49;100060.45;;;-0.99;77.76
76553;BME280;65395;53.168;18.156;2023-03-12T04:58:18;100059.79;;;-1.00;77.73
76553;BME280;65395;53.168;18.156;2023-03-12T05:00:46;100061.70;;;-1.02;77.50
76553;BME280;65395;53.168;18.156;2023-03-12T05:03:14;100066.61;;;-1.05;77.59
76553;BME280;65395;53.168;18.156;2023-03-12T05:05:41;100072.41;;;-1.05;77.41
76553;BME280;65395;53.168;18.156;2023-03-12T05:08:08;100071.41;;;-1.05;77.12
76553;BME280;65395;53.168;18.156;2023-03-12T05:10:35;100075.70;;;-1.02;76.65
76553;BME280;65395;53.168;18.156;2023-03-12T05:13:02;100077.30;;;-1.03;76.47
76553;BME280;65395;53.168;18.156;2023-03-12T05:15:29;100075.45;;;-1.05;76.44
76553;BME280;65395;53.168;18.156;2023-03-12T05:17:59;100084.58;;;-1.08;76.29
76553;BME280;65395;53.168;18.156;2023-03-12T05:20:26;100083.14;;;-1.10;76.42
76553;BME280;65395;53.168;18.156;2023-03-12T05:22:53;100085.85;;;-1.13;76.43
76553;BME280;65395;53.168;18.156;2023-03-12T05:25:20;100082.92;;;-1.13;76.54
76553;BME280;65395;53.168;18.156;2023-03-12T05:27:46;100081.80;;;-1.12;76.55
76553;BME280;65395;53.168;18.156;2023-03-12T05:30:13;100081.41;;;-1.13;76.88
76553;BME280;65395;53.168;18.156;2023-03-12T05:32:40;100084.52;;;-1.13;77.20
76553;BME280;65395;53.168;18.156;2023-03-12T05:35:07;100088.17;;;-1.11;77.58
76553;BME280;65395;53.168;18.156;2023-03-12T05:37:35;100090.70;;;-1.10;77.53
76553;BME280;65395;53.168;18.156;2023-03-12T05:40:02;100099.93;;;-1.08;77.67
76553;BME280;65395;53.168;18.156;2023-03-12T05:42:29;100092.54;;;-1.07;77.55
76553;BME280;65395;53.168;18.156;2023-03-12T05:44:56;100096.15;;;-1.07;77.34
76553;BME280;65395;53.168;18.156;2023-03-12T05:47:25;100100.25;;;-1.08;77.50
76553;BME280;65395;53.168;18.156;2023-03-12T05:49:51;100107.29;;;-1.06;77.44
76553;BME280;65395;53.168;18.156;2023-03-12T05:52:18;100116.94;;;-1.03;77.07
76553;BME280;65395;53.168;18.156;2023-03-12T05:54:45;100128.06;;;-1.00;76.96
76553;BME280;65395;53.168;18.156;2023-03-12T05:57:12;100123.95;;;-0.95;76.72
76553;BME280;65395;53.168;18.156;2023-03-12T05:59:39;100124.91;;;-0.91;76.21
76553;BME280;65395;53.168;18.156;2023-03-12T06:02:07;100132.87;;;-0.88;76.03
76553;BME280;65395;53.168;18.156;2023-03-12T06:04:34;100122.17;;;-0.84;76.20
76553;BME280;65395;53.168;18.156;2023-03-12T06:07:02;100123.20;;;-0.83;75.97
76553;BME280;65395;53.168;18.156;2023-03-12T06:09:29;100125.56;;;-0.82;75.82
76553;BME280;65395;53.168;18.156;2023-03-12T06:11:56;100134.54;;;-0.81;75.72
76553;BME280;65395;53.168;18.156;2023-03-12T06:14:23;100135.89;;;-0.78;75.39
76553;BME280;65395;53.168;18.156;2023-03-12T06:16:51;100139.58;;;-0.73;75.63
76553;BME280;65395;53.168;18.156;2023-03-12T06:19:18;100142.16;;;-0.69;75.03
76553;BME280;65395;53.168;18.156;2023-03-12T06:21:47;100157.81;;;-0.64;75.06
76553;BME280;65395;53.168;18.156;2023-03-12T06:24:14;100155.66;;;-0.58;74.60
76553;BME280;65395;53.168;18.156;2023-03-12T06:26:45;100162.15;;;-0.55;74.59
76553;BME280;65395;53.168;18.156;2023-03-12T06:29:12;100171.81;;;-0.51;74.52
76553;BME280;65395;53.168;18.156;2023-03-12T06:31:39;100181.97;;;-0.48;74.06
76553;BME280;65395;53.168;18.156;2023-03-12T06:34:07;100171.84;;;-0.46;73.96
76553;BME280;65395;53.168;18.156;2023-03-12T06:36:35;100179.91;;;-0.44;73.71
76553;BME280;65395;53.168;18.156;2023-03-12T06:39:03;100185.64;;;-0.42;73.36
76553;BME280;65395;53.168;18.156;2023-03-12T06:41:31;100188.55;;;-0.39;73.30
76553;BME280;65395;53.168;18.156;2023-03-12T06:43:59;100189.43;;;-0.35;72.83
76553;BME280;65395;53.168;18.156;2023-03-12T06:46:29;100187.40;;;-0.31;72.60
76553;BME280;65395;53.168;18.156;2023-03-12T06:48:55;100200.70;;;-0.25;72.33
76553;BME280;65395;53.168;18.156;2023-03-12T06:51:22;100197.48;;;-0.21;72.20
76553;BME280;65395;53.168;18.156;2023-03-12T06:53:49;100194.46;;;-0.17;72.05
76553;BME280;65395;53.168;18.156;2023-03-12T06:56:16;100197.39;;;-0.13;71.74
76553;BME280;65395;53.168;18.156;2023-03-12T06:58:43;100191.32;;;-0.11;71.99
76553;BME280;65395;53.168;18.156;2023-03-12T07:01:10;100200.04;;;-0.08;71.16
76553;BME280;65395;53.168;18.156;2023-03-12T07:03:37;100217.71;;;-0.05;70.89
76553;BME280;65395;53.168;18.156;2023-03-12T07:06:13;100216.21;;;-0.03;70.60
76553;BME280;65395;53.168;18.156;2023-03-12T07:08:40;100212.23;;;-0.00;70.67
76553;BME280;65395;53.168;18.156;2023-03-12T07:11:08;100212.02;;;0.02;70.47
76553;BME280;65395;53.168;18.156;2023-03-12T07:13:35;100212.94;;;0.07;70.60
76553;BME280;65395;53.168;18.156;2023-03-12T07:16:02;100237.23;;;0.10;69.97
76553;BME280;65395;53.168;18.156;2023-03-12T07:18:29;100245.58;;;0.16;69.15
76553;BME280;65395;53.168;18.156;2023-03-12T07:20:56;100244.49;;;0.21;69.12
76553;BME280;65395;53.168;18.156;2023-03-12T07:23:24;100247.73;;;0.24;68.50
76553;BME280;65395;53.168;18.156;2023-03-12T07:25:51;100244.89;;;0.27;69.00
76553;BME280;65395;53.168;18.156;2023-03-12T07:28:19;100248.83;;;0.30;68.56
76553;BME280;65395;53.168;18.156;2023-03-12T07:30:47;100240.58;;;0.32;68.84
76553;BME280;65395;53.168;18.156;2023-03-12T07:33:18;100256.02;;;0.33;68.75
76553;BME280;65395;53.168;18.156;2023-03-12T07:35:46;100253.55;;;0.35;68.08
76553;BME280;65395;53.168;18.156;2023-03-12T07:38:15;100253.52;;;0.37;69.19
76553;BME280;65395;53.168;18.156;2023-03-12T07:40:42;100256.14;;;0.42;69.13
76553;BME280;65395;53.168;18.156;2023-03-12T07:43:09;100259.20;;;0.44;67.92
76553;BME280;65395;53.168;18.156;2023-03-12T07:45:39;100273.92;;;0.47;67.61
76553;BME280;65395;53.168;18.156;2023-03-12T07:48:07;100263.19;;;0.49;67.65
76553;BME280;65395;53.168;18.156;2023-03-12T07:50:35;100255.91;;;0.51;67.80
76553;BME280;65395;53.168;18.156;2023-03-12T07:53:03;100264.50;;;0.54;67.54
76553;BME280;65395;53.168;18.156;2023-03-12T07:55:31;100276.51;;;0.56;66.42
76553;BME280;65395;53.168;18.156;2023-03-12T07:57:58;100264.20;;;0.58;66.64
76553;BME280;65395;53.168;18.156;2023-03-12T08:00:26;100262.13;;;0.63;67.28
76553;BME280;65395;53.168;18.156;2023-03-12T08:02:53;100268.02;;;0.67;66.24
76553;BME280;65395;53.168;18.156;2023-03-12T08:05:20;100264.70;;;0.72;66.57
76553;BME280;65395;53.168;18.156;2023-03-12T08:07:51;100261.16;;;0.77;66.68
76553;BME280;65395;53.168;18.156;2023-03-12T08:10:19;100272.66;;;0.84;66.33
76553;BME280;65395;53.168;18.156;2023-03-12T08:12:46;100284.92;;;0.89;66.12
76553;BME280;65395;53.168;18.156;2023-03-12T08:15:13;100287.83;;;0.93;65.47
76553;BME280;65395;53.168;18.156;2023-03-12T08:17:41;100296.69;;;0.95;65.27
76553;BME280;65395;53.168;18.156;2023-03-12T08:20:08;100296.14;;;0.96;65.14
76553;BME280;65395;53.168;18.156;2023-03-12T08:22:36;100296.36;;;1.00;66.19
76553;BME280;65395;53.168;18.156;2023-03-12T08:25:04;100291.80;;;1.06;66.40
76553;BME280;65395;53.168;18.156;2023-03-12T08:27:32;100305.35;;;1.11;65.21
76553;BME280;65395;53.168;18.156;2023-03-12T08:29:59;100312.30;;;1.15;64.73
76553;BME280;65395;53.168;18.156;2023-03-12T08:32:26;100313.76;;;1.19;65.46
76553;BME280;65395;53.168;18.156;2023-03-12T08:34:53;100323.11;;;1.22;64.64
76553;BME280;65395;53.168;18.156;2023-03-12T08:37:20;100320.25;;;1.24;64.22
76553;BME280;65395;53.168;18.156;2023-03-12T08:39:48;100312.52;;;1.25;63.63
76553;BME280;65395;53.168;18.156;2023-03-12T08:42:15;100314.34;;;1.28;64.97
76553;BME280;65395;53.168;18.156;2023-03-12T08:44:42;100316.63;;;1.31;63.96
76553;BME280;65395;53.168;18.156;2023-03-12T08:47:09;100326.42;;;1.36;64.46
76553;BME280;65395;53.168;18.156;2023-03-12T08:49:36;100327.94;;;1.42;63.97
76553;BME280;65395;53.168;18.156;2023-03-12T08:52:03;100332.61;;;1.47;64.43
76553;BME280;65395;53.168;18.156;2023-03-12T08:54:30;100341.35;;;1.54;63.79
76553;BME280;65395;53.168;18.156;2023-03-12T08:56:57;100335.72;;;1.55;62.79
76553;BME280;65395;53.168;18.156;2023-03-12T08:59:24;100345.26;;;1.58;62.41
76553;BME280;65395;53.168;18.156;2023-03-12T09:01:51;100347.77;;;1.65;62.70
76553;BME280;65395;53.168;18.156;2023-03-12T09:04:18;100350.92;;;1.79;62.26
76553;BME280;65395;53.168;18.156;2023-03-12T09:06:45;100343.37;;;1.96;62.21
76553;BME280;65395;53.168;18.156;2023-03-12T09:09:13;100354.45;;;2.16;62.00
76553;BME280;65395;53.168;18.156;2023-03-12T09:11:39;100356.12;;;2.30;61.02
76553;BME280;65395;53.168;18.156;2023-03-12T09:14:07;100369.45;;;2.39;60.68
76553;BME280;65395;53.168;18.156;2023-03-12T09:16:34;100370.13;;;2.46;60.24
76553;BME280;65395;53.168;18.156;2023-03-12T09:19:01;100369.30;;;2.50;60.65
76553;BME280;65395;53.168;18.156;2023-03-12T09:21:27;100374.64;;;2.56;60.72
76553;BME280;65395;53.168;18.156;2023-03-12T09:23:54;100367.98;;;2.66;60.14
76553;BME280;65395;53.168;18.156;2023-03-12T09:26:21;100384.02;;;2.71;58.87
76553;BME280;65395;53.168;18.156;2023-03-12T09:28:48;100388.52;;;2.70;58.62
76553;BME280;65395;53.168;18.156;2023-03-12T09:31:16;100373.14;;;2.63;59.54
76553;BME280;65395;53.168;18.156;2023-03-12T09:33:42;100381.38;;;2.60;59.84
76553;BME280;65395;53.168;18.156;2023-03-12T09:36:09;100378.79;;;2.65;59.18
76553;BME280;65395;53.168;18.156;2023-03-12T09:38:36;100385.04;;;2.78;59.01
76553;BME280;65395;53.168;18.156;2023-03-12T09:41:05;100396.33;;;2.84;57.72
76553;BME280;65395;53.168;18.156;2023-03-12T09:43:43;100389.58;;;2.82;57.68
76553;BME280;65395;53.168;18.156;2023-03-12T09:46:16;100385.41;;;2.88;57.94
76553;BME280;65395;53.168;18.156;2023-03-12T09:48:47;100388.96;;;2.98;57.48
76553;BME280;65395;53.168;18.156;2023-03-12T09:51:23;100397.19;;;2.97;57.19
76553;BME280;65395;53.168;18.156;2023-03-12T09:53:55;100394.63;;;2.97;57.41
76553;BME280;65395;53.168;18.156;2023-03-12T09:56:25;100396.25;;;2.94;55.97
76553;BME280;65395;53.168;18.156;2023-03-12T09:58:53;100393.98;;;2.91;56.41
76553;BME280;65395;53.168;18.156;2023-03-12T10:07:01;100401.02;;;3.11;56.67
76553;BME280;65395;53.168;18.156;2023-03-12T10:09:46;100397.13;;;3.23;56.59
76553;BME280;65395;53.168;18.156;2023-03-12T10:12:44;100416.60;;;3.26;55.00
76553;BME280;65395;53.168;18.156;2023-03-12T10:15:41;100417.65;;;3.26;55.81
76553;BME280;65395;53.168;18.156;2023-03-12T10:18:22;100416.52;;;3.15;53.26
76553;BME280;65395;53.168;18.156;2023-03-12T10:21:04;100407.55;;;3.10;54.82
76553;BME280;65395;53.168;18.156;2023-03-12T10:23:45;100421.86;;;3.25;54.93
76553;BME280;65395;53.168;18.156;2023-03-12T10:26:22;100421.75;;;3.38;54.03
76553;BME280;65395;53.168;18.156;2023-03-12T10:28:58;100408.81;;;3.41;53.49
76553;BME280;65395;53.168;18.156;2023-03-12T10:31:31;100408.67;;;3.48;54.16
76553;BME280;65395;53.168;18.156;2023-03-12T10:34:01;100415.61;;;3.66;53.59
76553;BME280;65395;53.168;18.156;2023-03-12T10:36:38;100428.86;;;3.82;53.04
76553;BME280;65395;53.168;18.156;2023-03-12T10:39:15;100423.42;;;3.92;53.12
76553;BME280;65395;53.168;18.156;2023-03-12T10:41:44;100421.27;;;3.91;52.40
76553;BME280;65395;53.168;18.156;2023-03-12T10:44:19;100443.02;;;3.85;51.83
76553;BME280;65395;53.168;18.156;2023-03-12T10:46:57;100435.01;;;3.72;51.93
76553;BME280;65395;53.168;18.156;2023-03-12T10:49:29;100434.08;;;3.59;51.94
76553;BME280;65395;53.168;18.156;2023-03-12T10:52:03;100428.71;;;3.59;53.03
76553;BME280;65395;53.168;18.156;2023-03-12T10:54:36;100432.95;;;3.55;51.33
76553;BME280;65395;53.168;18.156;2023-03-12T10:57:03;100439.64;;;3.50;51.41
76553;BME280;65395;53.168;18.156;2023-03-12T10:59:33;100433.91;;;3.49;52.15
76553;BME280;65395;53.168;18.156;2023-03-12T11:02:10;100436.91;;;3.51;52.12
76553;BME280;65395;53.168;18.156;2023-03-12T11:04:51;100444.09;;;3.50;50.89
76553;BME280;65395;53.168;18.156;2023-03-12T11:07:29;100437.64;;;3.56;51.63
76553;BME280;65395;53.168;18.156;2023-03-12T11:10:12;100441.29;;;3.75;51.42
76553;BME280;65395;53.168;18.156;2023-03-12T11:12:51;100453.39;;;3.91;49.61
76553;BME280;65395;53.168;18.156;2023-03-12T11:15:25;100468.12;;;3.92;49.31
76553;BME280;65395;53.168;18.156;2023-03-12T11:20:40;100459.69;;;3.99;50.22
76553;BME280;65395;53.168;18.156;2023-03-12T11:23:13;100461.54;;;4.07;49.56
76553;BME280;65395;53.168;18.156;2023-03-12T11:25:40;100452.83;;;4.13;50.34
76553;BME280;65395;53.168;18.156;2023-03-12T11:28:15;100454.62;;;4.25;50.03
76553;BME280;65395;53.168;18.156;2023-03-12T11:30:43;100454.80;;;4.30;49.81
76553;BME280;65395;53.168;18.156;2023-03-12T11:33:10;100472.96;;;4.41;50.05
76553;BME280;65395;53.168;18.156;2023-03-12T11:35:50;100469.23;;;4.39;49.83
76553;BME280;65395;53.168;18.156;2023-03-12T11:38:30;100473.09;;;4.37;49.24
76553;BME280;65395;53.168;18.156;2023-03-12T11:41:15;100471.14;;;4.30;49.08
76553;BME280;65395;53.168;18.156;2023-03-12T11:44:02;100471.27;;;4.31;49.05
76553;BME280;65395;53.168;18.156;2023-03-12T11:46:40;100473.21;;;4.58;50.11
76553;BME280;65395;53.168;18.156;2023-03-12T11:49:33;100481.58;;;4.90;49.02
76553;BME280;65395;53.168;18.156;2023-03-12T11:52:16;100491.46;;;4.90;48.12
76553;BME280;65395;53.168;18.156;2023-03-12T11:55:03;100492.57;;;4.84;48.00
76553;BME280;65395;53.168;18.156;2023-03-12T11:58:29;100488.89;;;4.81;47.86
76553;BME280;65395;53.168;18.156;2023-03-12T12:00:45;100495.61;;;4.60;47.73
76553;BME280;65395;53.168;18.156;2023-03-12T12:03:34;100485.95;;;4.52;48.47
76553;BME280;65395;53.168;18.156;2023-03-12T12:06:15;100482.27;;;4.50;48.38
76553;BME280;65395;53.168;18.156;2023-03-12T12:14:39;100484.98;;;4.63;47.10
76553;BME280;65395;53.168;18.156;2023-03-12T12:17:22;100479.16;;;4.65;46.68
76553;BME280;65395;53.168;18.156;2023-03-12T12:20:02;100476.48;;;4.64;47.20
76553;BME280;65395;53.168;18.156;2023-03-12T12:23:02;100484.34;;;4.61;46.62
76553;BME280;65395;53.168;18.156;2023-03-12T12:28:33;100465.02;;;4.33;47.17
76553;BME280;65395;53.168;18.156;2023-03-12T12:31:29;100473.38;;;4.29;46.87
76553;BME280;65395;53.168;18.156;2023-03-12T12:34:14;100470.80;;;4.38;46.90
76553;BME280;65395;53.168;18.156;2023-03-12T12:36:47;100464.63;;;4.43;47.52
76553;BME280;65395;53.168;18.156;2023-03-12T12:39:31;100458.97;;;4.61;47.34
76553;BME280;65395;53.168;18.156;2023-03-12T12:42:05;100456.91;;;4.94;47.69
76553;BME280;65395;53.168;18.156;2023-03-12T12:44:37;100464.27;;;5.21;46.92
76553;BME280;65395;53.168;18.156;2023-03-12T12:47:10;100471.20;;;5.29;45.81
76553;BME280;65395;53.168;18.156;2023-03-12T12:49:46;100463.23;;;5.21;46.10
76553;BME280;65395;53.168;18.156;2023-03-12T12:52:17;100459.48;;;5.17;46.64
76553;BME280;65395;53.168;18.156;2023-03-12T12:57:38;100463.92;;;5.29;47.35
76553;BME280;65395;53.168;18.156;2023-03-12T13:03:00;100469.40;;;5.61;46.34
76553;BME280;65395;53.168;18.156;2023-03-12T13:05:43;100474.42;;;5.75;46.08
76553;BME280;65395;53.168;18.156;2023-03-12T13:08:33;100472.10;;;5.84;45.54
76553;BME280;65395;53.168;18.156;2023-03-12T13:11:06;100472.00;;;6.00;44.13
76553;BME280;65395;53.168;18.156;2023-03-12T13:14:10;100472.75;;;6.09;44.60
76553;BME280;65395;53.168;18.156;2023-03-12T13:16:41;100471.84;;;6.36;45.11
76553;BME280;65395;53.168;18.156;2023-03-12T13:19:24;100473.21;;;6.56;44.27
76553;BME280;65395;53.168;18.156;2023-03-12T13:22:10;100474.35;;;6.75;44.03
76553;BME280;65395;53.168;18.156;2023-03-12T13:24:51;100481.27;;;6.85;43.18
76553;BME280;65395;53.168;18.156;2023-03-12T13:27:24;100483.15;;;6.84;42.76
76553;BME280;65395;53.168;18.156;2023-03-12T13:29:53;100497.92;;;6.79;42.65
76553;BME280;65395;53.168;18.156;2023-03-12T13:33:02;100485.92;;;6.70;43.61